sensor_id;sensor_type;location;lat;lon;timestamp;P1;durP1;ratioP1;P2;durP2;ratioP2
41446;SDS011;27185;52.040;4.490;2022-11-30T00:00:18;17.27;;;8.38;;
41446;SDS011;27185;52.040;4.490;2022-11-30T00:03:06;15.73;;;8.05;;
41446;SDS011;27185;52.040;4.490;2022-11-30T00:05:52;14.25;;;7.72;;
41446;SDS011;27185;52.040;4.490;2022-11-30T00:08:38;11.50;;;7.05;;
41446;SDS011;27185;52.040;4.490;2022-11-30T00:11:25;12.98;;;6.85;;
41446;SDS011;27185;52.040;4.490;2022-11-30T00:14:12;9.65;;;6.65;;
41446;SDS011;27185;52.040;4.490;2022-11-30T00:16:57;14.55;;;6.72;;
41446;SDS011;27185;52.040;4.490;2022-11-30T00:19:43;12.07;;;7.35;;
41446;SDS011;27185;52.040;4.490;2022-11-30T00:22:29;13.50;;;6.72;;
41446;SDS011;27185;52.040;4.490;2022-11-30T00:25:14;9.27;;;6.45;;
41446;SDS011;27185;52.040;4.490;2022-11-30T00:28:00;10.20;;;6.78;;
41446;SDS011;27185;52.040;4.490;2022-11-30T00:30:55;11.88;;;6.88;;
41446;SDS011;27185;52.040;4.490;2022-11-30T00:33:41;9.85;;;7.03;;
41446;SDS011;27185;52.040;4.490;2022-11-30T00:36:27;13.90;;;7.20;;
41446;SDS011;27185;52.040;4.490;2022-11-30T00:39:13;12.18;;;7.75;;
41446;SDS011;27185;52.040;4.490;2022-11-30T00:41:59;9.27;;;6.70;;
41446;SDS011;27185;52.040;4.490;2022-11-30T00:44:44;11.30;;;6.28;;
41446;SDS011;27185;52.040;4.490;2022-11-30T00:47:30;9.65;;;7.45;;
41446;SDS011;27185;52.040;4.490;2022-11-30T00:50:15;12.20;;;7.20;;
41446;SDS011;27185;52.040;4.490;2022-11-30T00:53:01;13.63;;;7.50;;
41446;SDS011;27185;52.040;4.490;2022-11-30T00:55:46;11.45;;;6.05;;
41446;SDS011;27185;52.040;4.490;2022-11-30T00:58:32;10.73;;;6.60;;
41446;SDS011;27185;52.040;4.490;2022-11-30T01:01:18;13.07;;;6.32;;
41446;SDS011;27185;52.040;4.490;2022-11-30T01:04:03;10.80;;;6.55;;
41446;SDS011;27185;52.040;4.490;2022-11-30T01:06:49;12.32;;;6.78;;
41446;SDS011;27185;52.040;4.490;2022-11-30T01:09:35;10.27;;;6.38;;
41446;SDS011;27185;52.040;4.490;2022-11-30T01:12:20;13.35;;;6.43;;
41446;SDS011;27185;52.040;4.490;2022-11-30T01:15:06;10.35;;;6.43;;
41446;SDS011;27185;52.040;4.490;2022-11-30T01:17:52;11.30;;;7.18;;
41446;SDS011;27185;52.040;4.490;2022-11-30T01:20:41;12.00;;;6.75;;
41446;SDS011;27185;52.040;4.490;2022-11-30T01:23:27;11.95;;;6.82;;
41446;SDS011;27185;52.040;4.490;2022-11-30T01:26:12;12.70;;;6.43;;
41446;SDS011;27185;52.040;4.490;2022-11-30T01:28:58;10.02;;;6.60;;
41446;SDS011;27185;52.040;4.490;2022-11-30T01:31:44;13.65;;;6.82;;
41446;SDS011;27185;52.040;4.490;2022-11-30T01:34:29;11.05;;;7.65;;
41446;SDS011;27185;52.040;4.490;2022-11-30T01:37:15;9.73;;;6.93;;
41446;SDS011;27185;52.040;4.490;2022-11-30T01:40:00;9.55;;;6.50;;
41446;SDS011;27185;52.040;4.490;2022-11-30T01:42:46;12.50;;;7.55;;
41446;SDS011;27185;52.040;4.490;2022-11-30T01:45:31;10.25;;;6.95;;
41446;SDS011;27185;52.040;4.490;2022-11-30T01:48:17;10.88;;;6.95;;
41446;SDS011;27185;52.040;4.490;2022-11-30T01:51:03;10.20;;;6.22;;
41446;SDS011;27185;52.040;4.490;2022-11-30T01:53:49;8.57;;;6.07;;
41446;SDS011;27185;52.040;4.490;2022-11-30T01:56:36;9.27;;;6.68;;
41446;SDS011;27185;52.040;4.490;2022-11-30T01:59:29;11.95;;;6.32;;
41446;SDS011;27185;52.040;4.490;2022-11-30T02:02:15;11.25;;;5.60;;
41446;SDS011;27185;52.040;4.490;2022-11-30T02:05:04;6.72;;;5.18;;
41446;SDS011;27185;52.040;4.490;2022-11-30T02:07:51;10.65;;;5.18;;
41446;SDS011;27185;52.040;4.490;2022-11-30T02:10:41;10.73;;;6.05;;
41446;SDS011;27185;52.040;4.490;2022-11-30T02:25:58;10.65;;;5.10;;
41446;SDS011;27185;52.040;4.490;2022-11-30T02:32:17;10.10;;;6.60;;
41446;SDS011;27185;52.040;4.490;2022-11-30T02:35:07;9.25;;;5.90;;
41446;SDS011;27185;52.040;4.490;2022-11-30T02:37:56;9.73;;;5.88;;
41446;SDS011;27185;52.040;4.490;2022-11-30T02:40:42;8.18;;;5.32;;
41446;SDS011;27185;52.040;4.490;2022-11-30T02:43:27;13.07;;;7.20;;
41446;SDS011;27185;52.040;4.490;2022-11-30T02:46:19;11.27;;;6.57;;
41446;SDS011;27185;52.040;4.490;2022-11-30T02:49:42;13.25;;;6.05;;
41446;SDS011;27185;52.040;4.490;2022-11-30T02:52:52;10.90;;;6.50;;
41446;SDS011;27185;52.040;4.490;2022-11-30T02:55:39;10.40;;;5.70;;
41446;SDS011;27185;52.040;4.490;2022-11-30T02:58:24;12.32;;;5.75;;
41446;SDS011;27185;52.040;4.490;2022-11-30T03:01:10;10.93;;;5.45;;
41446;SDS011;27185;52.040;4.490;2022-11-30T03:03:55;13.52;;;6.43;;
41446;SDS011;27185;52.040;4.490;2022-11-30T03:06:41;10.70;;;6.15;;
41446;SDS011;27185;52.040;4.490;2022-11-30T03:09:26;13.35;;;6.82;;
41446;SDS011;27185;52.040;4.490;2022-11-30T03:12:12;15.30;;;6.65;;
41446;SDS011;27185;52.040;4.490;2022-11-30T03:14:58;10.07;;;5.68;;
41446;SDS011;27185;52.040;4.490;2022-11-30T03:17:43;8.55;;;5.55;;
41446;SDS011;27185;52.040;4.490;2022-11-30T03:20:29;9.73;;;5.55;;
41446;SDS011;27185;52.040;4.490;2022-11-30T03:23:14;11.25;;;6.05;;
41446;SDS011;27185;52.040;4.490;2022-11-30T03:26:00;13.68;;;7.03;;
41446;SDS011;27185;52.040;4.490;2022-11-30T03:28:46;12.07;;;6.35;;
41446;SDS011;27185;52.040;4.490;2022-11-30T03:31:31;12.57;;;6.40;;
41446;SDS011;27185;52.040;4.490;2022-11-30T03:34:17;10.07;;;5.68;;
41446;SDS011;27185;52.040;4.490;2022-11-30T03:37:02;11.80;;;6.43;;
41446;SDS011;27185;52.040;4.490;2022-11-30T03:39:48;10.45;;;6.28;;
41446;SDS011;27185;52.040;4.490;2022-11-30T03:42:34;12.23;;;6.53;;
41446;SDS011;27185;52.040;4.490;2022-11-30T03:45:19;13.10;;;6.20;;
41446;SDS011;27185;52.040;4.490;2022-11-30T03:48:05;9.27;;;6.38;;
41446;SDS011;27185;52.040;4.490;2022-11-30T03:50:50;14.05;;;6.57;;
41446;SDS011;27185;52.040;4.490;2022-11-30T03:53:36;7.93;;;5.43;;
41446;SDS011;27185;52.040;4.490;2022-11-30T03:56:22;10.68;;;6.22;;
41446;SDS011;27185;52.040;4.490;2022-11-30T03:59:08;11.95;;;6.95;;
41446;SDS011;27185;52.040;4.490;2022-11-30T04:01:53;9.65;;;5.97;;
41446;SDS011;27185;52.040;4.490;2022-11-30T04:04:39;13.68;;;6.72;;
41446;SDS011;27185;52.040;4.490;2022-11-30T04:07:24;13.45;;;6.60;;
41446;SDS011;27185;52.040;4.490;2022-11-30T04:10:10;10.27;;;5.70;;
41446;SDS011;27185;52.040;4.490;2022-11-30T04:12:56;8.60;;;5.88;;
41446;SDS011;27185;52.040;4.490;2022-11-30T04:15:41;14.07;;;7.00;;
41446;SDS011;27185;52.040;4.490;2022-11-30T04:18:27;13.30;;;8.10;;
41446;SDS011;27185;52.040;4.490;2022-11-30T04:21:14;11.55;;;6.90;;
41446;SDS011;27185;52.040;4.490;2022-11-30T04:23:59;9.75;;;6.18;;
41446;SDS011;27185;52.040;4.490;2022-11-30T04:26:45;9.68;;;6.07;;
41446;SDS011;27185;52.040;4.490;2022-11-30T04:29:31;9.70;;;6.53;;
41446;SDS011;27185;52.040;4.490;2022-11-30T04:32:16;12.38;;;7.30;;
41446;SDS011;27185;52.040;4.490;2022-11-30T04:35:02;12.43;;;7.10;;
41446;SDS011;27185;52.040;4.490;2022-11-30T04:37:47;10.65;;;6.43;;
41446;SDS011;27185;52.040;4.490;2022-11-30T04:40:33;11.23;;;7.35;;
41446;SDS011;27185;52.040;4.490;2022-11-30T04:43:22;11.13;;;6.75;;
41446;SDS011;27185;52.040;4.490;2022-11-30T04:46:08;11.52;;;7.40;;
41446;SDS011;27185;52.040;4.490;2022-11-30T04:48:54;8.95;;;7.18;;
41446;SDS011;27185;52.040;4.490;2022-11-30T04:51:40;10.73;;;7.80;;
41446;SDS011;27185;52.040;4.490;2022-11-30T04:54:25;11.38;;;7.07;;
41446;SDS011;27185;52.040;4.490;2022-11-30T04:57:11;12.80;;;7.55;;
41446;SDS011;27185;52.040;4.490;2022-11-30T04:59:57;12.43;;;7.18;;
41446;SDS011;27185;52.040;4.490;2022-11-30T05:02:42;12.15;;;7.22;;
41446;SDS011;27185;52.040;4.490;2022-11-30T05:05:28;10.48;;;6.80;;
41446;SDS011;27185;52.040;4.490;2022-11-30T05:08:13;10.90;;;6.25;;
41446;SDS011;27185;52.040;4.490;2022-11-30T05:10:59;10.88;;;7.78;;
41446;SDS011;27185;52.040;4.490;2022-11-30T05:13:45;11.52;;;7.35;;
41446;SDS011;27185;52.040;4.490;2022-11-30T05:16:30;11.00;;;7.20;;
41446;SDS011;27185;52.040;4.490;2022-11-30T05:19:16;11.27;;;7.90;;
41446;SDS011;27185;52.040;4.490;2022-11-30T05:22:01;9.73;;;6.53;;
41446;SDS011;27185;52.040;4.490;2022-11-30T05:24:47;12.48;;;7.70;;
41446;SDS011;27185;52.040;4.490;2022-11-30T05:27:32;11.38;;;6.82;;
41446;SDS011;27185;52.040;4.490;2022-11-30T05:30:19;11.82;;;7.90;;
41446;SDS011;27185;52.040;4.490;2022-11-30T05:33:05;11.88;;;8.07;;
41446;SDS011;27185;52.040;4.490;2022-11-30T05:35:50;19.77;;;8.30;;
41446;SDS011;27185;52.040;4.490;2022-11-30T05:38:36;12.38;;;7.63;;
41446;SDS011;27185;52.040;4.490;2022-11-30T05:41:21;16.10;;;8.07;;
41446;SDS011;27185;52.040;4.490;2022-11-30T05:44:07;10.23;;;7.55;;
41446;SDS011;27185;52.040;4.490;2022-11-30T05:46:53;11.43;;;8.80;;
41446;SDS011;27185;52.040;4.490;2022-11-30T05:49:38;12.48;;;8.80;;
41446;SDS011;27185;52.040;4.490;2022-11-30T05:52:24;13.18;;;8.77;;
41446;SDS011;27185;52.040;4.490;2022-11-30T05:55:09;16.20;;;9.40;;
41446;SDS011;27185;52.040;4.490;2022-11-30T05:57:55;11.13;;;8.52;;
41446;SDS011;27185;52.040;4.490;2022-11-30T06:00:41;12.93;;;8.25;;
41446;SDS011;27185;52.040;4.490;2022-11-30T06:03:27;13.10;;;8.40;;
41446;SDS011;27185;52.040;4.490;2022-11-30T06:09:00;10.48;;;7.07;;
41446;SDS011;27185;52.040;4.490;2022-11-30T06:11:47;11.80;;;7.70;;
41446;SDS011;27185;52.040;4.490;2022-11-30T06:14:32;12.55;;;7.70;;
41446;SDS011;27185;52.040;4.490;2022-11-30T06:17:18;11.18;;;7.20;;
41446;SDS011;27185;52.040;4.490;2022-11-30T06:20:06;14.98;;;8.50;;
41446;SDS011;27185;52.040;4.490;2022-11-30T06:22:53;13.55;;;7.90;;
41446;SDS011;27185;52.040;4.490;2022-11-30T06:25:38;12.93;;;8.68;;
41446;SDS011;27185;52.040;4.490;2022-11-30T06:28:24;12.20;;;8.48;;
41446;SDS011;27185;52.040;4.490;2022-11-30T06:31:09;13.68;;;8.85;;
41446;SDS011;27185;52.040;4.490;2022-11-30T06:33:56;14.00;;;9.38;;
41446;SDS011;27185;52.040;4.490;2022-11-30T06:36:42;15.07;;;10.45;;
41446;SDS011;27185;52.040;4.490;2022-11-30T06:39:27;13.65;;;9.38;;
41446;SDS011;27185;52.040;4.490;2022-11-30T06:42:13;18.42;;;11.40;;
41446;SDS011;27185;52.040;4.490;2022-11-30T06:44:59;14.75;;;10.02;;
41446;SDS011;27185;52.040;4.490;2022-11-30T06:47:44;24.67;;;12.20;;
41446;SDS011;27185;52.040;4.490;2022-11-30T06:50:30;18.80;;;12.38;;
41446;SDS011;27185;52.040;4.490;2022-11-30T06:53:15;15.05;;;11.07;;
41446;SDS011;27185;52.040;4.490;2022-11-30T06:56:04;19.70;;;12.00;;
41446;SDS011;27185;52.040;4.490;2022-11-30T06:58:51;18.65;;;11.27;;
41446;SDS011;27185;52.040;4.490;2022-11-30T07:01:38;23.05;;;14.05;;
41446;SDS011;27185;52.040;4.490;2022-11-30T07:04:23;19.48;;;13.23;;
41446;SDS011;27185;52.040;4.490;2022-11-30T07:07:09;19.58;;;12.88;;
41446;SDS011;27185;52.040;4.490;2022-11-30T07:09:55;18.35;;;12.52;;
41446;SDS011;27185;52.040;4.490;2022-11-30T07:12:41;16.83;;;12.30;;
41446;SDS011;27185;52.040;4.490;2022-11-30T07:15:29;18.88;;;12.30;;
41446;SDS011;27185;52.040;4.490;2022-11-30T07:18:14;19.25;;;13.00;;
41446;SDS011;27185;52.040;4.490;2022-11-30T07:21:00;18.90;;;11.68;;
41446;SDS011;27185;52.040;4.490;2022-11-30T07:23:48;20.33;;;12.48;;
41446;SDS011;27185;52.040;4.490;2022-11-30T07:26:52;20.17;;;11.85;;
41446;SDS011;27185;52.040;4.490;2022-11-30T07:29:37;19.02;;;12.15;;
41446;SDS011;27185;52.040;4.490;2022-11-30T07:32:23;20.90;;;12.00;;
41446;SDS011;27185;52.040;4.490;2022-11-30T07:35:08;19.00;;;12.52;;
41446;SDS011;27185;52.040;4.490;2022-11-30T07:37:54;18.48;;;12.88;;
41446;SDS011;27185;52.040;4.490;2022-11-30T07:40:40;18.92;;;13.10;;
41446;SDS011;27185;52.040;4.490;2022-11-30T07:43:26;16.55;;;11.70;;
41446;SDS011;27185;52.040;4.490;2022-11-30T07:46:13;18.13;;;12.07;;
41446;SDS011;27185;52.040;4.490;2022-11-30T07:49:09;20.10;;;13.30;;
41446;SDS011;27185;52.040;4.490;2022-11-30T07:51:55;17.23;;;12.35;;
41446;SDS011;27185;52.040;4.490;2022-11-30T07:54:40;17.70;;;12.00;;
41446;SDS011;27185;52.040;4.490;2022-11-30T07:57:26;16.25;;;12.18;;
41446;SDS011;27185;52.040;4.490;2022-11-30T08:00:11;16.63;;;11.60;;
41446;SDS011;27185;52.040;4.490;2022-11-30T08:02:58;23.10;;;13.00;;
41446;SDS011;27185;52.040;4.490;2022-11-30T08:05:43;19.60;;;13.52;;
41446;SDS011;27185;52.040;4.490;2022-11-30T08:08:30;21.88;;;13.18;;
41446;SDS011;27185;52.040;4.490;2022-11-30T08:11:17;20.77;;;14.18;;
41446;SDS011;27185;52.040;4.490;2022-11-30T08:14:04;19.80;;;14.00;;
41446;SDS011;27185;52.040;4.490;2022-11-30T08:16:50;20.70;;;13.50;;
41446;SDS011;27185;52.040;4.490;2022-11-30T08:19:36;24.45;;;14.48;;
41446;SDS011;27185;52.040;4.490;2022-11-30T08:22:21;22.73;;;14.02;;
41446;SDS011;27185;52.040;4.490;2022-11-30T08:25:07;19.60;;;13.60;;
41446;SDS011;27185;52.040;4.490;2022-11-30T08:27:53;21.20;;;13.82;;
41446;SDS011;27185;52.040;4.490;2022-11-30T08:30:39;20.38;;;13.95;;
41446;SDS011;27185;52.040;4.490;2022-11-30T08:33:24;18.50;;;13.20;;
41446;SDS011;27185;52.040;4.490;2022-11-30T08:36:14;20.52;;;14.20;;
41446;SDS011;27185;52.040;4.490;2022-11-30T08:39:02;18.83;;;13.90;;
41446;SDS011;27185;52.040;4.490;2022-11-30T08:41:49;20.58;;;12.90;;
41446;SDS011;27185;52.040;4.490;2022-11-30T08:44:37;21.00;;;13.80;;
41446;SDS011;27185;52.040;4.490;2022-11-30T08:47:22;23.02;;;14.23;;
41446;SDS011;27185;52.040;4.490;2022-11-30T08:50:08;21.08;;;13.63;;
41446;SDS011;27185;52.040;4.490;2022-11-30T08:52:54;20.15;;;12.75;;
41446;SDS011;27185;52.040;4.490;2022-11-30T08:55:40;22.13;;;13.90;;
41446;SDS011;27185;52.040;4.490;2022-11-30T08:58:26;23.77;;;13.45;;
41446;SDS011;27185;52.040;4.490;2022-11-30T09:01:19;20.95;;;13.57;;
41446;SDS011;27185;52.040;4.490;2022-11-30T09:04:06;19.52;;;12.98;;
41446;SDS011;27185;52.040;4.490;2022-11-30T09:06:51;20.15;;;13.57;;
41446;SDS011;27185;52.040;4.490;2022-11-30T09:09:37;19.42;;;13.63;;
41446;SDS011;27185;52.040;4.490;2022-11-30T09:12:23;19.40;;;14.10;;
41446;SDS011;27185;52.040;4.490;2022-11-30T09:15:08;25.40;;;16.02;;
41446;SDS011;27185;52.040;4.490;2022-11-30T09:17:54;22.42;;;14.75;;
41446;SDS011;27185;52.040;4.490;2022-11-30T09:20:40;21.90;;;15.88;;
41446;SDS011;27185;52.040;4.490;2022-11-30T09:23:26;21.63;;;15.13;;
41446;SDS011;27185;52.040;4.490;2022-11-30T09:26:13;22.70;;;14.93;;
41446;SDS011;27185;52.040;4.490;2022-11-30T09:29:01;22.00;;;14.65;;
41446;SDS011;27185;52.040;4.490;2022-11-30T09:31:47;20.48;;;14.85;;
41446;SDS011;27185;52.040;4.490;2022-11-30T09:34:33;21.75;;;14.50;;
41446;SDS011;27185;52.040;4.490;2022-11-30T09:37:19;23.45;;;14.90;;
41446;SDS011;27185;52.040;4.490;2022-11-30T09:40:05;22.08;;;14.15;;
41446;SDS011;27185;52.040;4.490;2022-11-30T09:46:12;22.08;;;15.23;;
41446;SDS011;27185;52.040;4.490;2022-11-30T09:49:01;20.83;;;14.45;;
41446;SDS011;27185;52.040;4.490;2022-11-30T09:51:50;21.52;;;15.65;;
41446;SDS011;27185;52.040;4.490;2022-11-30T09:54:42;24.27;;;15.95;;
41446;SDS011;27185;52.040;4.490;2022-11-30T09:58:12;24.17;;;16.30;;
41446;SDS011;27185;52.040;4.490;2022-11-30T10:00:39;25.02;;;15.63;;
41446;SDS011;27185;52.040;4.490;2022-11-30T10:03:25;23.60;;;16.67;;
41446;SDS011;27185;52.040;4.490;2022-11-30T10:06:13;28.67;;;17.48;;
41446;SDS011;27185;52.040;4.490;2022-11-30T10:12:03;19.48;;;14.05;;
41446;SDS011;27185;52.040;4.490;2022-11-30T10:14:59;20.67;;;13.82;;
41446;SDS011;27185;52.040;4.490;2022-11-30T10:17:54;21.95;;;14.48;;
41446;SDS011;27185;52.040;4.490;2022-11-30T10:23:44;23.90;;;15.27;;
41446;SDS011;27185;52.040;4.490;2022-11-30T10:26:32;20.13;;;14.38;;
41446;SDS011;27185;52.040;4.490;2022-11-30T10:32:12;22.67;;;14.55;;
41446;SDS011;27185;52.040;4.490;2022-11-30T10:35:16;24.30;;;15.98;;
41446;SDS011;27185;52.040;4.490;2022-11-30T10:38:49;27.52;;;15.73;;
41446;SDS011;27185;52.040;4.490;2022-11-30T10:41:28;23.00;;;15.27;;
41446;SDS011;27185;52.040;4.490;2022-11-30T10:44:19;21.30;;;15.10;;
41446;SDS011;27185;52.040;4.490;2022-11-30T10:47:13;20.65;;;14.88;;
41446;SDS011;27185;52.040;4.490;2022-11-30T10:50:04;21.63;;;15.82;;
41446;SDS011;27185;52.040;4.490;2022-11-30T10:52:51;22.77;;;15.53;;
41446;SDS011;27185;52.040;4.490;2022-11-30T10:55:40;22.27;;;14.93;;
41446;SDS011;27185;52.040;4.490;2022-11-30T10:58:37;21.25;;;14.10;;
41446;SDS011;27185;52.040;4.490;2022-11-30T11:01:30;21.45;;;14.98;;
41446;SDS011;27185;52.040;4.490;2022-11-30T11:04:25;20.05;;;14.40;;
41446;SDS011;27185;52.040;4.490;2022-11-30T11:07:13;18.40;;;12.63;;
41446;SDS011;27185;52.040;4.490;2022-11-30T11:09:59;21.83;;;13.82;;
41446;SDS011;27185;52.040;4.490;2022-11-30T11:12:49;24.98;;;15.05;;
41446;SDS011;27185;52.040;4.490;2022-11-30T11:15:36;21.30;;;13.85;;
41446;SDS011;27185;52.040;4.490;2022-11-30T11:18:22;21.30;;;14.23;;
41446;SDS011;27185;52.040;4.490;2022-11-30T11:23:55;21.10;;;14.02;;
41446;SDS011;27185;52.040;4.490;2022-11-30T11:26:47;22.70;;;14.18;;
41446;SDS011;27185;52.040;4.490;2022-11-30T11:29:34;21.00;;;14.75;;
41446;SDS011;27185;52.040;4.490;2022-11-30T11:32:21;22.77;;;14.40;;
41446;SDS011;27185;52.040;4.490;2022-11-30T11:35:45;25.63;;;15.48;;
41446;SDS011;27185;52.040;4.490;2022-11-30T11:41:20;22.23;;;14.20;;
41446;SDS011;27185;52.040;4.490;2022-11-30T11:44:20;24.75;;;15.52;;
41446;SDS011;27185;52.040;4.490;2022-11-30T11:47:13;25.98;;;15.38;;
41446;SDS011;27185;52.040;4.490;2022-11-30T11:50:22;21.55;;;14.07;;
41446;SDS011;27185;52.040;4.490;2022-11-30T11:53:12;23.00;;;15.55;;
41446;SDS011;27185;52.040;4.490;2022-11-30T11:56:30;22.33;;;13.93;;
41446;SDS011;27185;52.040;4.490;2022-11-30T11:59:18;20.85;;;13.05;;
41446;SDS011;27185;52.040;4.490;2022-11-30T12:05:00;25.48;;;14.38;;
41446;SDS011;27185;52.040;4.490;2022-11-30T12:14:13;20.65;;;13.32;;
41446;SDS011;27185;52.040;4.490;2022-11-30T12:17:02;17.50;;;12.23;;
41446;SDS011;27185;52.040;4.490;2022-11-30T12:20:08;21.60;;;12.13;;
41446;SDS011;27185;52.040;4.490;2022-11-30T12:23:02;19.88;;;12.40;;
41446;SDS011;27185;52.040;4.490;2022-11-30T12:29:30;15.10;;;10.07;;
41446;SDS011;27185;52.040;4.490;2022-11-30T12:53:42;17.20;;;12.32;;
41446;SDS011;27185;52.040;4.490;2022-11-30T12:59:49;19.75;;;15.27;;
41446;SDS011;27185;52.040;4.490;2022-11-30T13:02:59;20.30;;;15.25;;
41446;SDS011;27185;52.040;4.490;2022-11-30T13:06:10;17.98;;;11.90;;
41446;SDS011;27185;52.040;4.490;2022-11-30T13:09:14;18.23;;;13.35;;
41446;SDS011;27185;52.040;4.490;2022-11-30T13:12:10;18.15;;;13.20;;
41446;SDS011;27185;52.040;4.490;2022-11-30T13:14:59;17.02;;;13.05;;
41446;SDS011;27185;52.040;4.490;2022-11-30T13:17:48;25.42;;;16.08;;
41446;SDS011;27185;52.040;4.490;2022-11-30T13:20:47;21.13;;;14.43;;
41446;SDS011;27185;52.040;4.490;2022-11-30T13:24:00;19.40;;;13.57;;
41446;SDS011;27185;52.040;4.490;2022-11-30T13:27:07;19.48;;;13.23;;
41446;SDS011;27185;52.040;4.490;2022-11-30T13:30:03;18.52;;;13.60;;
41446;SDS011;27185;52.040;4.490;2022-11-30T13:32:51;23.65;;;14.98;;
41446;SDS011;27185;52.040;4.490;2022-11-30T13:38:22;22.60;;;14.93;;
41446;SDS011;27185;52.040;4.490;2022-11-30T13:41:08;22.23;;;16.00;;
41446;SDS011;27185;52.040;4.490;2022-11-30T13:43:53;20.40;;;14.52;;
41446;SDS011;27185;52.040;4.490;2022-11-30T13:46:46;21.92;;;14.85;;
41446;SDS011;27185;52.040;4.490;2022-11-30T13:49:33;24.30;;;16.13;;
41446;SDS011;27185;52.040;4.490;2022-11-30T13:52:43;27.00;;;17.65;;
41446;SDS011;27185;52.040;4.490;2022-11-30T13:58:33;23.70;;;16.65;;
41446;SDS011;27185;52.040;4.490;2022-11-30T14:01:20;24.98;;;16.15;;
41446;SDS011;27185;52.040;4.490;2022-11-30T14:07:03;26.88;;;15.00;;
41446;SDS011;27185;52.040;4.490;2022-11-30T14:16:27;24.73;;;15.95;;
41446;SDS011;27185;52.040;4.490;2022-11-30T14:19:13;24.55;;;16.17;;
41446;SDS011;27185;52.040;4.490;2022-11-30T14:21:59;23.75;;;14.85;;
41446;SDS011;27185;52.040;4.490;2022-11-30T14:24:45;25.23;;;15.02;;
41446;SDS011;27185;52.040;4.490;2022-11-30T14:27:33;25.88;;;16.48;;
41446;SDS011;27185;52.040;4.490;2022-11-30T14:30:21;23.23;;;15.80;;
41446;SDS011;27185;52.040;4.490;2022-11-30T14:33:12;24.88;;;15.75;;
41446;SDS011;27185;52.040;4.490;2022-11-30T14:36:01;26.90;;;17.63;;
41446;SDS011;27185;52.040;4.490;2022-11-30T14:38:47;29.58;;;18.25;;
41446;SDS011;27185;52.040;4.490;2022-11-30T14:41:33;30.38;;;19.02;;
41446;SDS011;27185;52.040;4.490;2022-11-30T14:44:18;31.85;;;18.80;;
41446;SDS011;27185;52.040;4.490;2022-11-30T14:47:18;32.75;;;18.63;;
41446;SDS011;27185;52.040;4.490;2022-11-30T14:50:22;25.63;;;17.67;;
41446;SDS011;27185;52.040;4.490;2022-11-30T14:53:13;28.50;;;18.33;;
41446;SDS011;27185;52.040;4.490;2022-11-30T14:56:35;32.55;;;19.80;;
41446;SDS011;27185;52.040;4.490;2022-11-30T14:59:45;31.45;;;20.02;;
41446;SDS011;27185;52.040;4.490;2022-11-30T15:02:35;29.50;;;18.38;;
41446;SDS011;27185;52.040;4.490;2022-11-30T15:05:23;31.60;;;17.58;;
41446;SDS011;27185;52.040;4.490;2022-11-30T15:08:13;26.92;;;17.42;;
41446;SDS011;27185;52.040;4.490;2022-11-30T15:11:02;30.77;;;18.00;;
41446;SDS011;27185;52.040;4.490;2022-11-30T15:13:51;29.60;;;18.02;;
41446;SDS011;27185;52.040;4.490;2022-11-30T15:16:45;28.65;;;18.85;;
41446;SDS011;27185;52.040;4.490;2022-11-30T15:19:32;26.10;;;18.50;;
41446;SDS011;27185;52.040;4.490;2022-11-30T15:22:20;33.25;;;20.73;;
41446;SDS011;27185;52.040;4.490;2022-11-30T15:25:10;35.90;;;21.63;;
41446;SDS011;27185;52.040;4.490;2022-11-30T15:27:56;33.17;;;20.25;;
41446;SDS011;27185;52.040;4.490;2022-11-30T15:30:43;31.35;;;20.92;;
41446;SDS011;27185;52.040;4.490;2022-11-30T15:33:44;31.23;;;19.90;;
41446;SDS011;27185;52.040;4.490;2022-11-30T15:36:35;30.67;;;19.70;;
41446;SDS011;27185;52.040;4.490;2022-11-30T15:39:22;35.10;;;20.17;;
41446;SDS011;27185;52.040;4.490;2022-11-30T15:42:17;30.58;;;18.63;;
41446;SDS011;27185;52.040;4.490;2022-11-30T15:45:15;30.27;;;17.92;;
41446;SDS011;27185;52.040;4.490;2022-11-30T15:48:29;27.88;;;18.17;;
41446;SDS011;27185;52.040;4.490;2022-11-30T15:51:20;30.67;;;18.95;;
41446;SDS011;27185;52.040;4.490;2022-11-30T15:54:08;29.92;;;19.13;;
41446;SDS011;27185;52.040;4.490;2022-11-30T15:56:54;31.73;;;19.02;;
41446;SDS011;27185;52.040;4.490;2022-11-30T15:59:41;32.10;;;19.23;;
41446;SDS011;27185;52.040;4.490;2022-11-30T16:02:30;30.40;;;19.23;;
41446;SDS011;27185;52.040;4.490;2022-11-30T16:08:16;33.28;;;21.17;;
41446;SDS011;27185;52.040;4.490;2022-11-30T16:11:03;36.03;;;21.67;;
41446;SDS011;27185;52.040;4.490;2022-11-30T16:13:49;36.30;;;21.15;;
41446;SDS011;27185;52.040;4.490;2022-11-30T16:16:34;39.08;;;23.45;;
41446;SDS011;27185;52.040;4.490;2022-11-30T16:19:20;37.85;;;23.67;;
41446;SDS011;27185;52.040;4.490;2022-11-30T16:22:07;33.72;;;22.50;;
41446;SDS011;27185;52.040;4.490;2022-11-30T16:24:55;38.63;;;23.42;;
41446;SDS011;27185;52.040;4.490;2022-11-30T16:27:41;36.67;;;24.23;;
41446;SDS011;27185;52.040;4.490;2022-11-30T16:30:27;35.72;;;23.33;;
41446;SDS011;27185;52.040;4.490;2022-11-30T16:33:15;34.92;;;21.90;;
41446;SDS011;27185;52.040;4.490;2022-11-30T16:36:06;41.17;;;25.10;;
41446;SDS011;27185;52.040;4.490;2022-11-30T16:38:53;42.00;;;25.02;;
41446;SDS011;27185;52.040;4.490;2022-11-30T16:41:39;34.90;;;22.17;;
41446;SDS011;27185;52.040;4.490;2022-11-30T16:44:24;40.63;;;24.00;;
41446;SDS011;27185;52.040;4.490;2022-11-30T16:47:10;40.05;;;24.40;;
41446;SDS011;27185;52.040;4.490;2022-11-30T16:49:55;37.70;;;23.33;;
41446;SDS011;27185;52.040;4.490;2022-11-30T16:52:41;36.38;;;22.92;;
41446;SDS011;27185;52.040;4.490;2022-11-30T16:55:28;37.13;;;22.35;;
41446;SDS011;27185;52.040;4.490;2022-11-30T17:01:01;38.45;;;22.15;;
41446;SDS011;27185;52.040;4.490;2022-11-30T17:03:48;33.70;;;20.02;;
41446;SDS011;27185;52.040;4.490;2022-11-30T17:06:36;37.95;;;22.67;;
41446;SDS011;27185;52.040;4.490;2022-11-30T17:09:22;38.72;;;20.88;;
41446;SDS011;27185;52.040;4.490;2022-11-30T17:12:07;35.33;;;21.27;;
41446;SDS011;27185;52.040;4.490;2022-11-30T17:14:53;33.38;;;18.60;;
41446;SDS011;27185;52.040;4.490;2022-11-30T17:17:39;42.63;;;22.02;;
41446;SDS011;27185;52.040;4.490;2022-11-30T17:20:25;36.97;;;20.52;;
41446;SDS011;27185;52.040;4.490;2022-11-30T17:23:11;33.78;;;21.25;;
41446;SDS011;27185;52.040;4.490;2022-11-30T17:25:57;37.38;;;22.05;;
41446;SDS011;27185;52.040;4.490;2022-11-30T17:28:42;32.90;;;19.70;;
41446;SDS011;27185;52.040;4.490;2022-11-30T17:31:28;38.45;;;22.15;;
41446;SDS011;27185;52.040;4.490;2022-11-30T17:34:14;40.15;;;21.83;;
41446;SDS011;27185;52.040;4.490;2022-11-30T17:36:59;35.42;;;19.95;;
41446;SDS011;27185;52.040;4.490;2022-11-30T17:39:45;35.70;;;21.13;;
41446;SDS011;27185;52.040;4.490;2022-11-30T17:42:30;34.63;;;21.38;;
41446;SDS011;27185;52.040;4.490;2022-11-30T17:45:16;38.25;;;22.55;;
41446;SDS011;27185;52.040;4.490;2022-11-30T17:48:01;42.72;;;23.73;;
41446;SDS011;27185;52.040;4.490;2022-11-30T17:50:50;40.85;;;23.60;;
41446;SDS011;27185;52.040;4.490;2022-11-30T17:53:37;39.15;;;23.05;;
41446;SDS011;27185;52.040;4.490;2022-11-30T17:56:23;38.03;;;22.20;;
41446;SDS011;27185;52.040;4.490;2022-11-30T17:59:10;36.17;;;21.42;;
41446;SDS011;27185;52.040;4.490;2022-11-30T18:01:55;36.78;;;20.83;;
41446;SDS011;27185;52.040;4.490;2022-11-30T18:04:41;37.75;;;21.75;;
41446;SDS011;27185;52.040;4.490;2022-11-30T18:07:26;40.88;;;23.42;;